Time;durP1;ratioP1;P1;durP2;ratioP2;P2;SDS_P1;SDS_P2;PMS_P1;PMS_P2;Temp;Humidity;BMP_temperature;BMP_pressure;BME280_temperature;BME280_humidity;BME280_pressure;Samples;Min_cycle;Max_cycle;Signal;HPM_P1;HPM_P2
2023/01/26 00:01:28;;;;;;;35.53;15.77;;;3.20;1.00;;;;;;5010386;28;20222;-75
2023/01/26 00:03:54;;;;;;;37.43;16.37;;;3.10;1.00;;;;;;5013446;28;20549;-72
2023/01/26 00:06:20;;;;;;;35.90;14.73;;;3.10;1.00;;;;;;5014302;28;20432;-74
2023/01/26 00:08:49;;;;;;;31.97;14.83;;;3.00;1.00;;;;;;5021333;28;20457;-73
2023/01/26 00:11:17;;;;;;;33.03;15.37;;;3.10;1.00;;;;;;5011377;28;20436;-74
2023/01/26 00:13:43;;;;;;;38.17;16.17;;;3.00;1.00;;;;;;5016157;28;20444;-74
2023/01/26 00:16:10;;;;;;;37.40;15.97;;;3.10;1.00;;;;;;5018334;28;20444;-74
2023/01/26 00:18:37;;;;;;;37.00;15.80;;;3.30;1.00;;;;;;5013088;28;20472;-75
2023/01/26 00:21:03;;;;;;;35.37;16.93;;;3.00;1.00;;;;;;5015472;28;20610;-73
2023/01/26 00:23:30;;;;;;;30.33;14.80;;;3.10;1.00;;;;;;5020390;28;20452;-73
2023/01/26 00:25:56;;;;;;;37.70;16.80;;;3.10;1.00;;;;;;5015903;28;20178;-72
2023/01/26 00:28:22;;;;;;;32.73;15.13;;;3.00;1.00;;;;;;5018672;28;21019;-73
2023/01/26 00:30:47;;;;;;;32.70;15.10;;;3.10;1.00;;;;;;5009105;28;20236;-73
2023/01/26 00:33:13;;;;;;;33.73;15.53;;;3.10;1.00;;;;;;5018312;28;20189;-74
2023/01/26 00:35:43;;;;;;;44.77;18.27;;;3.10;1.00;;;;;;5023475;28;20281;-74
2023/01/26 00:38:09;;;;;;;49.47;18.77;;;3.10;1.00;;;;;;5021167;28;20834;-73
2023/01/26 00:40:35;;;;;;;35.33;16.90;;;3.10;1.00;;;;;;5008317;28;20442;-75
2023/01/26 00:43:00;;;;;;;37.37;17.93;;;3.10;1.00;;;;;;5009709;28;20433;-73
2023/01/26 00:45:26;;;;;;;35.80;15.27;;;3.10;1.00;;;;;;5026705;28;20190;-73
2023/01/26 00:47:52;;;;;;;29.43;14.67;;;3.10;1.00;;;;;;5017041;28;20627;-73
2023/01/26 00:50:17;;;;;;;30.60;13.83;;;3.00;1.00;;;;;;5012929;28;20183;-72
2023/01/26 00:52:43;;;;;;;31.67;15.20;;;3.00;1.00;;;;;;5018441;28;20476;-73
2023/01/26 00:55:08;;;;;;;30.20;14.80;;;3.00;1.00;;;;;;5008321;28;20253;-73
2023/01/26 00:57:34;;;;;;;33.97;15.50;;;3.00;1.00;;;;;;5015407;28;20217;-73
2023/01/26 00:59:59;;;;;;;32.80;17.50;;;3.00;1.00;;;;;;5022055;28;20209;-73
2023/01/26 01:02:25;;;;;;;34.10;16.77;;;3.00;1.00;;;;;;5013740;28;20446;-73
2023/01/26 01:04:50;;;;;;;34.17;17.27;;;3.00;1.00;;;;;;5014210;28;20212;-73
2023/01/26 01:07:16;;;;;;;29.80;15.10;;;3.10;1.00;;;;;;5016231;28;20202;-74
2023/01/26 01:09:43;;;;;;;31.93;16.80;;;3.00;1.00;;;;;;5010954;28;20218;-72
2023/01/26 01:12:09;;;;;;;35.17;16.60;;;3.00;1.00;;;;;;5006752;28;20673;-73
2023/01/26 01:14:34;;;;;;;34.90;16.77;;;3.10;1.00;;;;;;5016017;28;20441;-73
2023/01/26 01:17:00;;;;;;;34.20;17.77;;;3.10;1.00;;;;;;5023978;28;20185;-73
2023/01/26 01:19:26;;;;;;;35.77;18.10;;;3.00;1.00;;;;;;5008761;28;20207;-73
2023/01/26 01:21:51;;;;;;;35.37;17.60;;;3.00;1.00;;;;;;5022291;28;20217;-73
2023/01/26 01:24:17;;;;;;;37.07;17.70;;;2.90;1.00;;;;;;5006525;28;20441;-72
2023/01/26 01:26:42;;;;;;;32.50;16.33;;;3.00;1.00;;;;;;5005569;28;20269;-73
2023/01/26 01:29:13;;;;;;;37.77;17.93;;;3.00;1.00;;;;;;5017936;28;20213;-73
2023/01/26 01:31:40;;;;;;;29.80;15.47;;;3.00;1.00;;;;;;5028504;28;20194;-73
2023/01/26 01:34:06;;;;;;;36.90;17.10;;;3.50;1.00;;;;;;5010439;28;20457;-73
2023/01/26 01:36:31;;;;;;;36.70;17.43;;;3.10;1.00;;;;;;5012329;28;20439;-73
2023/01/26 01:38:57;;;;;;;40.10;17.90;;;3.30;1.00;;;;;;5024172;28;20217;-73
2023/01/26 01:41:22;;;;;;;40.63;18.40;;;2.90;1.00;;;;;;5017388;28;20240;-73
2023/01/26 01:43:49;;;;;;;34.73;17.30;;;3.40;1.00;;;;;;5020936;28;20619;-72
2023/01/26 01:46:28;;;;;;;35.10;16.50;;;2.90;1.00;;;;;;5010997;28;20182;-73
2023/01/26 01:49:22;;;;;;;32.63;16.60;;;2.90;1.00;;;;;;5009811;28;20468;-73
2023/01/26 01:52:04;;;;;;;38.20;17.73;;;2.90;1.00;;;;;;5013415;28;20432;-73
2023/01/26 01:54:40;;;;;;;40.07;18.40;;;2.90;1.00;;;;;;5004074;28;20455;-73
2023/01/26 01:57:17;;;;;;;37.10;18.37;;;2.90;1.00;;;;;;5020091;28;20436;-73
2023/01/26 01:59:48;;;;;;;38.27;18.30;;;2.90;1.00;;;;;;5007143;28;20469;-73
2023/01/26 02:02:13;;;;;;;35.83;17.30;;;3.00;1.00;;;;;;5016812;28;20437;-73
2023/01/26 02:04:40;;;;;;;38.87;17.33;;;2.90;1.00;;;;;;5013055;28;20432;-70
2023/01/26 02:07:06;;;;;;;42.60;17.67;;;2.90;1.00;;;;;;5008917;28;20545;-74
2023/01/26 02:12:23;;;;;;;35.33;17.27;;;2.90;1.00;;;;;;5016671;28;20870;-73
2023/01/26 02:14:51;;;;;;;42.37;18.67;;;3.20;1.00;;;;;;5009524;28;20429;-73
2023/01/26 02:17:17;;;;;;;41.67;18.80;;;3.00;1.00;;;;;;5023449;28;20540;-73
2023/01/26 02:19:53;;;;;;;35.63;18.10;;;3.00;1.00;;;;;;5006834;28;21113;-75
2023/01/26 02:22:32;;;;;;;38.63;18.47;;;2.90;1.00;;;;;;5018720;28;20184;-73
2023/01/26 02:25:10;;;;;;;40.37;19.17;;;3.00;1.00;;;;;;5008645;28;20421;-73
2023/01/26 02:27:36;;;;;;;35.07;17.53;;;2.90;1.00;;;;;;5002744;28;20440;-73
2023/01/26 02:30:03;;;;;;;39.63;18.83;;;3.00;1.00;;;;;;5008284;28;20438;-70
2023/01/26 02:32:28;;;;;;;35.60;17.10;;;2.90;1.00;;;;;;5012575;28;20813;-75
2023/01/26 02:34:56;;;;;;;38.40;17.53;;;2.90;1.00;;;;;;5011914;28;20511;-73
2023/01/26 02:37:22;;;;;;;35.00;16.17;;;3.20;1.00;;;;;;5015892;28;20241;-73
2023/01/26 02:40:06;;;;;;;33.53;16.63;;;3.40;1.00;;;;;;5019435;28;20499;-73
2023/01/26 02:42:37;;;;;;;34.60;17.87;;;3.00;1.00;;;;;;5015171;28;20183;-73
2023/01/26 02:45:04;;;;;;;39.80;18.50;;;3.40;1.00;;;;;;5008213;28;20437;-72
2023/01/26 02:47:30;;;;;;;35.67;17.17;;;3.00;1.00;;;;;;5009989;28;20433;-73
2023/01/26 02:49:57;;;;;;;37.83;16.70;;;3.00;1.00;;;;;;5013772;28;20525;-73
2023/01/26 02:52:25;;;;;;;38.03;17.23;;;3.00;1.00;;;;;;5015114;28;20186;-73
2023/01/26 02:57:36;;;;;;;34.83;16.50;;;2.90;1.00;;;;;;5014243;28;20470;-73
2023/01/26 03:00:04;;;;;;;40.30;17.33;;;2.90;1.00;;;;;;5013304;28;20433;-73
2023/01/26 03:02:29;;;;;;;36.30;16.67;;;2.90;1.00;;;;;;5014383;28;20784;-72
2023/01/26 03:04:55;;;;;;;35.67;17.20;;;2.90;1.00;;;;;;5024306;28;20422;-72
2023/01/26 03:07:20;;;;;;;33.90;17.60;;;2.90;1.00;;;;;;5011006;28;20194;-75
2023/01/26 03:09:46;;;;;;;40.67;18.73;;;2.90;1.00;;;;;;5019715;28;20233;-73
2023/01/26 03:12:12;;;;;;;34.17;16.47;;;3.00;1.00;;;;;;5017020;28;20603;-73
2023/01/26 03:14:37;;;;;;;36.27;17.53;;;3.20;1.00;;;;;;5011123;28;20190;-73
2023/01/26 03:17:03;;;;;;;34.50;16.13;;;2.80;1.00;;;;;;5022701;28;20263;-73
2023/01/26 03:27:43;;;;;;;31.27;15.00;;;2.90;1.00;;;;;;5021346;28;20474;-73
2023/01/26 03:30:10;;;;;;;33.87;15.17;;;3.00;1.00;;;;;;5011159;28;20441;-73
2023/01/26 03:32:35;;;;;;;27.67;15.20;;;2.60;1.00;;;;;;5018209;28;20440;-76
2023/01/26 03:35:01;;;;;;;31.37;14.70;;;3.10;1.00;;;;;;5009886;28;20438;-71
2023/01/26 03:37:27;;;;;;;29.63;13.73;;;2.60;1.00;;;;;;5019021;28;20672;-73
2023/01/26 03:56:31;;;;;;;33.90;16.50;;;2.70;1.00;;;;;;5017620;28;20503;-73
2023/01/26 03:59:08;;;;;;;37.60;17.37;;;2.70;1.00;;;;;;5021821;28;20489;-74
2023/01/26 04:01:38;;;;;;;35.00;16.43;;;2.70;1.00;;;;;;5022987;28;20914;-73
2023/01/26 04:09:41;;;;;;;34.73;16.03;;;2.90;1.00;;;;;;5012516;28;20459;-72
2023/01/26 04:12:09;;;;;;;30.30;15.67;;;2.60;1.00;;;;;;5014347;28;20453;-74
2023/01/26 04:22:48;;;;;;;34.27;15.80;;;2.50;1.00;;;;;;5018111;28;20419;-73
2023/01/26 04:25:17;;;;;;;32.07;14.90;;;2.60;1.00;;;;;;5014195;28;20939;-73
2023/01/26 04:27:43;;;;;;;29.07;14.53;;;2.60;1.00;;;;;;5007677;28;20198;-73
2023/01/26 04:30:10;;;;;;;32.00;15.43;;;2.60;1.00;;;;;;5021536;28;20961;-70
2023/01/26 04:32:36;;;;;;;29.47;15.60;;;2.60;1.00;;;;;;5010700;28;20438;-72
2023/01/26 04:35:03;;;;;;;31.07;15.13;;;2.70;1.00;;;;;;5009796;28;20446;-73
2023/01/26 04:37:29;;;;;;;35.57;16.70;;;2.70;1.00;;;;;;5013230;28;20568;-73
2023/01/26 04:39:54;;;;;;;37.93;15.83;;;3.10;1.00;;;;;;5017930;28;20517;-73
2023/01/26 04:42:23;;;;;;;28.80;14.60;;;3.10;1.00;;;;;;5020801;28;20197;-73
2023/01/26 04:44:49;;;;;;;30.50;15.20;;;3.10;1.00;;;;;;5015731;28;20245;-73
2023/01/26 04:47:14;;;;;;;33.83;15.50;;;2.80;1.00;;;;;;5007806;28;20524;-75
2023/01/26 04:49:40;;;;;;;30.93;14.47;;;2.70;1.00;;;;;;5022132;28;20539;-73
2023/01/26 04:52:05;;;;;;;35.67;15.13;;;2.50;1.00;;;;;;5018051;28;20656;-76
2023/01/26 04:54:31;;;;;;;27.60;13.60;;;2.80;1.00;;;;;;5016813;28;20170;-73
2023/01/26 04:56:56;;;;;;;24.20;12.43;;;2.80;1.00;;;;;;5018648;28;20187;-73
2023/01/26 04:59:22;;;;;;;25.03;12.83;;;3.10;1.00;;;;;;5022833;28;20202;-75
2023/01/26 05:01:47;;;;;;;26.70;12.80;;;3.10;1.00;;;;;;5018149;28;20188;-73
2023/01/26 05:04:13;;;;;;;23.00;11.70;;;2.70;1.00;;;;;;5011525;28;20564;-74
2023/01/26 05:06:40;;;;;;;24.60;12.33;;;2.70;1.00;;;;;;5009774;28;20221;-73
2023/01/26 05:09:06;;;;;;;27.40;13.30;;;2.90;1.00;;;;;;5007139;28;20198;-73
2023/01/26 05:11:31;;;;;;;27.10;14.30;;;2.90;1.00;;;;;;5012469;28;20441;-73
2023/01/26 05:13:57;;;;;;;24.23;11.63;;;3.00;1.00;;;;;;5026624;28;20560;-73
2023/01/26 05:16:23;;;;;;;26.40;13.63;;;2.60;1.00;;;;;;5016169;28;20210;-75
2023/01/26 05:18:48;;;;;;;24.43;12.17;;;3.10;1.00;;;;;;5018799;28;20284;-73
2023/01/26 05:21:14;;;;;;;24.77;14.20;;;2.90;1.00;;;;;;5017528;28;20182;-73
2023/01/26 05:23:40;;;;;;;25.50;12.80;;;3.00;1.00;;;;;;5024507;28;20213;-73
2023/01/26 05:26:06;;;;;;;25.43;12.67;;;3.00;1.00;;;;;;5012543;28;20198;-73
2023/01/26 05:28:34;;;;;;;29.10;14.13;;;2.50;1.00;;;;;;5012359;28;20288;-73
2023/01/26 05:30:59;;;;;;;30.30;13.83;;;2.60;1.00;;;;;;5019286;28;20491;-73
2023/01/26 05:33:25;;;;;;;27.80;14.40;;;2.50;1.00;;;;;;5006528;28;20461;-73
2023/01/26 05:35:52;;;;;;;27.20;13.90;;;2.40;1.00;;;;;;5013221;28;20201;-73
2023/01/26 05:38:18;;;;;;;26.27;13.50;;;3.00;1.00;;;;;;5016059;28;20221;-73
2023/01/26 05:40:45;;;;;;;26.03;12.93;;;2.90;1.00;;;;;;5022299;28;20828;-73
2023/01/26 05:43:11;;;;;;;27.27;13.47;;;2.70;1.00;;;;;;5007968;28;20508;-73
2023/01/26 05:45:37;;;;;;;22.57;12.17;;;2.70;1.00;;;;;;5018067;28;20183;-73
2023/01/26 05:48:03;;;;;;;21.33;11.27;;;2.60;1.00;;;;;;5006484;28;20472;-73
2023/01/26 05:50:28;;;;;;;23.17;12.20;;;2.50;1.00;;;;;;5010205;28;20453;-73
2023/01/26 05:52:54;;;;;;;23.00;11.57;;;2.50;1.00;;;;;;5017278;28;20205;-73
2023/01/26 05:55:19;;;;;;;26.00;11.93;;;3.10;1.00;;;;;;5010047;28;20182;-74
2023/01/26 05:57:45;;;;;;;22.30;11.50;;;2.40;1.00;;;;;;5011693;28;20302;-73
2023/01/26 06:00:12;;;;;;;24.77;11.97;;;2.40;1.00;;;;;;5006672;28;20217;-73
2023/01/26 06:02:37;;;;;;;24.33;11.67;;;2.40;1.00;;;;;;5020460;28;20190;-73
2023/01/26 06:05:04;;;;;;;26.43;12.20;;;2.40;1.00;;;;;;5018127;28;20623;-74
2023/01/26 06:07:29;;;;;;;28.07;12.47;;;2.40;1.40;;;;;;5012710;28;20276;-72
2023/01/26 06:09:55;;;;;;;21.50;11.53;;;2.40;1.00;;;;;;5003631;28;20528;-75
2023/01/26 06:12:21;;;;;;;23.73;11.57;;;2.40;2.70;;;;;;5026563;28;20182;-73
2023/01/26 06:14:47;;;;;;;20.40;10.70;;;2.50;1.00;;;;;;5012640;28;20190;-73
2023/01/26 06:17:14;;;;;;;21.77;11.87;;;2.40;1.10;;;;;;5023997;28;20645;-73
2023/01/26 06:19:40;;;;;;;22.57;11.83;;;2.50;1.00;;;;;;5002645;28;20716;-74
2023/01/26 06:22:13;;;;;;;26.60;12.50;;;2.50;1.40;;;;;;5018121;28;20441;-73
2023/01/26 06:24:38;;;;;;;23.60;11.30;;;2.40;5.40;;;;;;5021355;28;20270;-73
2023/01/26 06:27:10;;;;;;;24.17;11.13;;;2.40;4.70;;;;;;5017790;28;20548;-75
2023/01/26 06:29:36;;;;;;;21.30;11.17;;;2.70;3.20;;;;;;5027065;28;20212;-72
2023/01/26 06:32:01;;;;;;;21.13;10.93;;;2.30;2.30;;;;;;5016907;28;20940;-76
2023/01/26 06:34:27;;;;;;;21.23;11.00;;;2.80;6.10;;;;;;5021808;28;20189;-73
2023/01/26 06:36:53;;;;;;;24.90;12.00;;;2.50;6.80;;;;;;5011347;28;20590;-75
2023/01/26 06:39:19;;;;;;;22.57;11.03;;;2.20;5.90;;;;;;5012696;28;20210;-74
2023/01/26 06:41:44;;;;;;;28.03;12.47;;;2.20;11.20;;;;;;5012115;28;20947;-72
2023/01/26 06:44:10;;;;;;;23.70;12.97;;;2.20;10.20;;;;;;5012476;28;20679;-74
2023/01/26 06:46:36;;;;;;;21.73;11.33;;;2.30;11.40;;;;;;5012019;28;20190;-73
2023/01/26 06:49:02;;;;;;;24.90;12.60;;;2.30;7.50;;;;;;5011700;28;20993;-73
2023/01/26 06:51:37;;;;;;;27.13;14.50;;;2.20;9.90;;;;;;5012498;28;20252;-73
2023/01/26 06:54:02;;;;;;;24.60;12.20;;;2.20;9.50;;;;;;5011546;28;20432;-74
2023/01/26 06:56:28;;;;;;;21.70;11.33;;;2.30;9.50;;;;;;5012039;28;20440;-73
2023/01/26 06:58:53;;;;;;;21.47;11.40;;;2.70;7.50;;;;;;5012294;28;20218;-73
2023/01/26 07:01:24;;;;;;;24.57;13.13;;;2.30;8.70;;;;;;5012006;28;20206;-73
2023/01/26 07:03:52;;;;;;;33.57;11.77;;;2.60;5.80;;;;;;5012442;28;20170;-72
2023/01/26 07:06:17;;;;;;;20.43;11.40;;;2.70;9.20;;;;;;5012930;28;20436;-71
2023/01/26 07:08:43;;;;;;;23.70;12.00;;;2.30;3.40;;;;;;5009206;28;20468;-72
2023/01/26 07:11:10;;;;;;;23.93;10.67;;;2.30;8.00;;;;;;5009070;28;20179;-73
2023/01/26 07:13:35;;;;;;;17.87;10.10;;;2.40;6.20;;;;;;5024409;28;20812;-73
2023/01/26 07:16:10;;;;;;;20.93;10.50;;;2.80;3.80;;;;;;5018306;28;20432;-73
2023/01/26 07:18:36;;;;;;;17.90;9.73;;;2.40;3.60;;;;;;5019479;28;20276;-73
2023/01/26 07:21:03;;;;;;;18.63;9.97;;;2.50;3.80;;;;;;5026112;28;20909;-71
2023/01/26 07:23:29;;;;;;;24.00;12.00;;;2.40;5.00;;;;;;5023173;28;20668;-74
2023/01/26 07:25:55;;;;;;;18.60;10.60;;;2.50;1.30;;;;;;5024792;28;20425;-74
2023/01/26 07:28:20;;;;;;;22.93;12.40;;;2.40;4.50;;;;;;5010436;28;20461;-72
2023/01/26 07:30:47;;;;;;;19.37;11.33;;;2.40;4.20;;;;;;5019049;28;20186;-72
2023/01/26 07:33:13;;;;;;;23.37;11.17;;;2.40;5.00;;;;;;5011755;28;20183;-73
2023/01/26 07:35:39;;;;;;;23.67;11.50;;;2.40;7.20;;;;;;5018954;28;20470;-72
2023/01/26 07:38:05;;;;;;;23.77;12.30;;;2.60;6.10;;;;;;5014577;28;20445;-74
2023/01/26 07:40:30;;;;;;;38.57;15.97;;;2.50;4.80;;;;;;5013260;28;20182;-73
2023/01/26 07:42:57;;;;;;;26.27;12.30;;;2.60;1.20;;;;;;5010903;28;20449;-74
2023/01/26 07:45:23;;;;;;;23.13;11.20;;;2.60;1.00;;;;;;5010975;28;20185;-74
2023/01/26 07:47:49;;;;;;;20.47;10.60;;;2.50;1.20;;;;;;5010438;28;20457;-74
2023/01/26 07:50:14;;;;;;;20.30;10.20;;;2.90;1.10;;;;;;5004201;28;20872;-74
2023/01/26 07:52:40;;;;;;;20.60;11.20;;;2.50;1.00;;;;;;5015658;28;20644;-73
2023/01/26 07:55:06;;;;;;;18.57;10.63;;;2.50;1.00;;;;;;5006480;28;20183;-71
2023/01/26 07:57:33;;;;;;;20.17;11.40;;;2.50;1.40;;;;;;5008619;28;20344;-74
2023/01/26 07:59:58;;;;;;;20.17;11.40;;;2.50;1.00;;;;;;5003836;28;20265;-72
2023/01/26 08:02:24;;;;;;;18.10;9.30;;;2.50;1.00;;;;;;5012312;28;20517;-73
2023/01/26 08:04:49;;;;;;;17.37;9.50;;;2.90;1.00;;;;;;5027717;28;20208;-72
2023/01/26 08:07:15;;;;;;;23.50;9.90;;;2.80;1.00;;;;;;5008551;28;20175;-74
2023/01/26 08:09:40;;;;;;;19.43;9.27;;;2.90;1.00;;;;;;5013794;28;20305;-72
2023/01/26 08:12:06;;;;;;;15.80;8.63;;;2.60;1.00;;;;;;5018970;28;20661;-72
2023/01/26 08:14:32;;;;;;;16.47;9.20;;;2.60;1.00;;;;;;5006105;28;20190;-74
2023/01/26 08:16:57;;;;;;;16.40;9.60;;;2.60;1.00;;;;;;5015621;28;20553;-73
2023/01/26 08:19:23;;;;;;;17.20;9.90;;;2.90;1.00;;;;;;5007992;28;20893;-71
2023/01/26 08:21:48;;;;;;;18.33;9.63;;;2.70;1.00;;;;;;5011631;28;20189;-72
2023/01/26 08:24:14;;;;;;;18.37;9.47;;;3.10;1.00;;;;;;5009526;28;20182;-73
2023/01/26 08:26:39;;;;;;;15.73;8.60;;;2.90;1.00;;;;;;5012541;28;20224;-72
2023/01/26 08:29:05;;;;;;;17.10;8.60;;;2.80;1.00;;;;;;5011445;28;20707;-72
2023/01/26 08:31:32;;;;;;;17.23;8.60;;;3.10;1.00;;;;;;5012312;28;20556;-75
2023/01/26 08:33:57;;;;;;;15.40;8.07;;;2.90;1.00;;;;;;5010817;28;20189;-72
2023/01/26 08:36:23;;;;;;;17.87;8.93;;;2.80;1.00;;;;;;5014282;28;20441;-72
2023/01/26 08:38:49;;;;;;;14.47;8.00;;;2.80;1.00;;;;;;5013869;28;20206;-73
2023/01/26 08:41:15;;;;;;;12.07;7.07;;;3.20;1.00;;;;;;5013671;28;20205;-74
2023/01/26 08:43:40;;;;;;;14.17;7.80;;;2.90;1.00;;;;;;5012286;28;20552;-72
2023/01/26 08:46:06;;;;;;;12.07;6.63;;;2.90;1.00;;;;;;5020374;28;20166;-73
2023/01/26 08:48:32;;;;;;;9.30;6.27;;;3.00;1.00;;;;;;5016686;28;20732;-73
2023/01/26 08:51:00;;;;;;;11.80;7.00;;;2.90;1.00;;;;;;5019449;28;20232;-73
2023/01/26 08:53:28;;;;;;;11.13;6.60;;;2.90;1.00;;;;;;5010913;28;20468;-74
2023/01/26 08:55:53;;;;;;;12.30;6.53;;;3.30;1.00;;;;;;5017336;28;20437;-72
2023/01/26 08:58:19;;;;;;;11.50;6.77;;;2.90;1.00;;;;;;5008904;28;20551;-72
2023/01/26 09:00:45;;;;;;;12.87;7.40;;;3.00;1.00;;;;;;5010469;28;20182;-71
2023/01/26 09:03:11;;;;;;;13.20;7.40;;;2.90;1.00;;;;;;5009602;28;20185;-72
2023/01/26 09:05:38;;;;;;;11.50;7.40;;;3.40;1.00;;;;;;5011946;28;20189;-72
2023/01/26 09:08:05;;;;;;;17.93;8.87;;;3.00;1.00;;;;;;5015922;28;20786;-73
2023/01/26 09:10:31;;;;;;;14.33;8.33;;;2.90;1.00;;;;;;4999882;28;20991;-73
2023/01/26 09:12:58;;;;;;;179.50;92.00;;;2.90;1.00;;;;;;5015028;28;20445;-73
2023/01/26 09:15:24;;;;;;;16.00;9.47;;;2.90;1.00;;;;;;5009267;28;20189;-73
2023/01/26 09:17:50;;;;;;;21.37;12.23;;;2.90;1.00;;;;;;5015870;28;20477;-72
2023/01/26 09:20:17;;;;;;;28.07;14.93;;;2.80;1.00;;;;;;5017073;28;20170;-73
2023/01/26 09:22:42;;;;;;;36.30;19.77;;;3.50;1.00;;;;;;5009492;28;20484;-73
2023/01/26 09:25:08;;;;;;;27.17;13.83;;;2.90;1.00;;;;;;5014968;28;20433;-72
2023/01/26 09:27:35;;;;;;;30.87;16.80;;;2.90;1.00;;;;;;5021934;28;20702;-72
2023/01/26 09:30:02;;;;;;;34.83;18.77;;;3.00;1.00;;;;;;5017217;28;20442;-72
2023/01/26 09:32:28;;;;;;;34.30;18.60;;;3.00;1.00;;;;;;5006071;28;20522;-72
2023/01/26 09:34:54;;;;;;;14.90;8.40;;;3.00;1.00;;;;;;5016725;28;20472;-72
2023/01/26 09:37:19;;;;;;;14.73;9.33;;;3.00;1.00;;;;;;5011726;28;20476;-72
2023/01/26 09:39:45;;;;;;;19.57;13.07;;;3.00;1.00;;;;;;5016032;28;20216;-73
2023/01/26 09:42:36;;;;;;;16.03;8.83;;;2.90;1.00;;;;;;5020741;28;20656;-72
2023/01/26 09:45:05;;;;;;;16.70;9.60;;;2.80;1.00;;;;;;5007615;28;20189;-73
2023/01/26 09:47:44;;;;;;;15.00;9.97;;;2.70;1.00;;;;;;5012941;28;20792;-71
2023/01/26 09:50:18;;;;;;;16.10;10.13;;;2.60;1.00;;;;;;5004674;28;20824;-73
2023/01/26 09:52:55;;;;;;;16.43;10.20;;;2.70;1.00;;;;;;5012085;28;20435;-73
2023/01/26 09:55:23;;;;;;;31.20;18.67;;;2.80;1.00;;;;;;5019371;28;20425;-73
2023/01/26 09:57:57;;;;;;;14.60;8.83;;;2.80;1.00;;;;;;5008545;28;20805;-72
2023/01/26 10:00:34;;;;;;;11.37;7.83;;;2.90;1.00;;;;;;5010167;28;20495;-72
2023/01/26 10:03:21;;;;;;;11.40;7.20;;;2.80;1.00;;;;;;5009485;28;20429;-74
2023/01/26 10:05:53;;;;;;;11.37;7.43;;;2.80;1.00;;;;;;5012299;28;20934;-73
2023/01/26 10:08:22;;;;;;;15.17;7.53;;;2.80;1.00;;;;;;5006334;28;20457;-73
2023/01/26 10:10:52;;;;;;;12.63;7.37;;;2.70;1.00;;;;;;5009281;28;20430;-74
2023/01/26 10:13:20;;;;;;;16.57;7.47;;;3.20;1.00;;;;;;5008260;28;20441;-73
2023/01/26 10:15:50;;;;;;;18.00;6.97;;;2.70;1.00;;;;;;5008695;28;20465;-74
2023/01/26 10:18:22;;;;;;;10.57;6.00;;;2.80;1.00;;;;;;5012232;28;20480;-73
2023/01/26 10:20:51;;;;;;;7.80;5.80;;;3.10;1.00;;;;;;5006785;28;20451;-73
2023/01/26 10:23:25;;;;;;;11.87;6.13;;;3.20;1.00;;;;;;5018097;28;20442;-73
2023/01/26 10:25:53;;;;;;;10.20;6.90;;;2.80;1.00;;;;;;5018784;28;20432;-73
2023/01/26 10:28:27;;;;;;;11.33;6.40;;;3.30;1.00;;;;;;5007299;28;20947;-75
2023/01/26 10:30:52;;;;;;;13.57;6.00;;;2.90;1.00;;;;;;5015312;28;20436;-73
2023/01/26 10:33:32;;;;;;;9.83;6.17;;;3.30;1.00;;;;;;5020049;28;20440;-75
2023/01/26 10:35:58;;;;;;;8.60;6.03;;;3.60;1.00;;;;;;5003115;28;20210;-73
2023/01/26 10:38:33;;;;;;;9.00;6.53;;;3.00;1.00;;;;;;5013699;28;20469;-75
2023/01/26 10:41:09;;;;;;;10.27;6.20;;;3.10;1.00;;;;;;5008798;28;20429;-74
2023/01/26 10:43:49;;;;;;;10.17;6.67;;;3.10;1.00;;;;;;5008243;28;20947;-73
2023/01/26 10:46:28;;;;;;;11.20;6.90;;;3.00;1.00;;;;;;5019649;28;20453;-73
2023/01/26 10:49:07;;;;;;;11.83;7.00;;;3.00;1.00;;;;;;5007633;28;20508;-72
2023/01/26 10:51:35;;;;;;;10.70;6.17;;;3.10;1.00;;;;;;5009608;28;20464;-72
2023/01/26 10:54:26;;;;;;;9.53;6.07;;;3.10;1.00;;;;;;5014165;28;20436;-75
2023/01/26 10:56:54;;;;;;;9.67;6.27;;;3.00;1.00;;;;;;5009386;28;20508;-74
2023/01/26 10:59:38;;;;;;;8.30;5.90;;;3.10;1.00;;;;;;5008072;28;20487;-72
2023/01/26 11:02:10;;;;;;;9.93;7.10;;;3.10;1.00;;;;;;5017666;28;20849;-72
2023/01/26 11:04:36;;;;;;;12.37;8.17;;;3.50;1.00;;;;;;5012379;28;20776;-74
2023/01/26 11:07:25;;;;;;;12.20;8.20;;;3.20;1.00;;;;;;5009635;28;20488;-74
2023/01/26 11:09:51;;;;;;;15.20;8.70;;;3.20;1.00;;;;;;5006746;28;20451;-74
2023/01/26 11:12:18;;;;;;;12.97;7.30;;;3.30;1.00;;;;;;5013408;28;20958;-73
2023/01/26 11:15:00;;;;;;;10.87;6.73;;;3.30;1.00;;;;;;5013290;28;20441;-73
2023/01/26 11:17:38;;;;;;;12.53;6.50;;;3.20;1.00;;;;;;5011835;28;20863;-74
2023/01/26 11:20:34;;;;;;;20.77;12.63;;;3.30;1.00;;;;;;5007398;28;20926;-72
2023/01/26 11:23:33;;;;;;;21.17;15.37;;;3.20;1.00;;;;;;5024839;28;20409;-72
2023/01/26 11:26:01;;;;;;;13.40;8.90;;;3.10;1.00;;;;;;5013657;28;20870;-74
2023/01/26 11:28:55;;;;;;;13.90;9.50;;;3.10;1.00;;;;;;5018621;28;20461;-75
2023/01/26 11:31:30;;;;;;;7.93;5.37;;;3.10;1.00;;;;;;5023805;28;20834;-73
2023/01/26 11:34:03;;;;;;;9.20;5.90;;;3.10;1.00;;;;;;5011423;28;20772;-73
2023/01/26 11:36:52;;;;;;;10.07;6.90;;;3.50;1.00;;;;;;5011094;28;20445;-75
2023/01/26 11:39:27;;;;;;;9.27;5.77;;;3.00;1.00;;;;;;5005876;28;20809;-73
2023/01/26 11:42:24;;;;;;;8.00;6.00;;;3.10;1.00;;;;;;5016881;28;20511;-72
2023/01/26 11:45:07;;;;;;;11.33;7.07;;;3.20;1.00;;;;;;5014806;28;20441;-74
2023/01/26 11:48:08;;;;;;;12.00;9.10;;;3.20;1.00;;;;;;5019326;28;20460;-73
2023/01/26 11:50:42;;;;;;;11.97;8.07;;;3.20;1.00;;;;;;4982460;28;20548;-73
2023/01/26 11:53:35;;;;;;;13.60;9.63;;;3.10;1.00;;;;;;5011965;28;20440;-75
2023/01/26 11:56:15;;;;;;;17.70;12.00;;;3.10;1.00;;;;;;5007488;28;20429;-71
2023/01/26 11:58:47;;;;;;;10.93;7.20;;;3.00;1.00;;;;;;5007961;28;20469;-72
2023/01/26 12:01:28;;;;;;;14.73;10.97;;;2.90;1.00;;;;;;5081864;23;20504;-73
2023/01/26 12:03:55;;;;;;;50.10;26.23;;;2.90;1.00;;;;;;5030000;28;20519;-72
2023/01/26 12:06:36;;;;;;;18.40;11.70;;;3.00;1.00;;;;;;5026578;28;20429;-73
2023/01/26 12:09:31;;;;;;;20.40;11.93;;;3.00;1.00;;;;;;5028308;28;20523;-74
2023/01/26 12:12:13;;;;;;;20.93;13.77;;;2.90;1.00;;;;;;5011642;28;20460;-74
2023/01/26 12:14:39;;;;;;;18.67;11.40;;;3.00;1.00;;;;;;5007786;28;20520;-75
2023/01/26 12:17:04;;;;;;;21.90;13.10;;;3.10;1.00;;;;;;5009870;28;20520;-74
2023/01/26 12:20:03;;;;;;;29.27;10.00;;;3.00;1.00;;;;;;5006460;28;20241;-74
2023/01/26 12:22:33;;;;;;;37.13;11.27;;;3.00;1.00;;;;;;4983043;28;20201;-74
2023/01/26 12:25:22;;;;;;;18.80;8.87;;;3.00;1.00;;;;;;5008685;28;20441;-74
2023/01/26 12:28:28;;;;;;;17.80;7.93;;;2.90;1.00;;;;;;5008099;28;20449;-73
2023/01/26 12:31:16;;;;;;;17.03;7.03;;;2.90;1.00;;;;;;5007345;28;20472;-74
2023/01/26 12:33:42;;;;;;;15.70;7.37;;;3.00;1.00;;;;;;5004837;28;20508;-74
2023/01/26 12:36:50;;;;;;;25.43;8.83;;;3.00;1.00;;;;;;5009200;28;20445;-74
2023/01/26 12:39:38;;;;;;;16.83;8.20;;;3.00;1.00;;;;;;4948515;28;20463;-74
2023/01/26 12:42:26;;;;;;;17.97;8.03;;;3.00;1.00;;;;;;5008095;28;20468;-74
2023/01/26 12:45:00;;;;;;;17.53;8.37;;;3.10;1.00;;;;;;5008765;28;20511;-74
2023/01/26 12:47:32;;;;;;;11.53;7.73;;;3.10;1.00;;;;;;5008633;28;20997;-74
2023/01/26 12:50:00;;;;;;;15.70;8.63;;;2.90;1.00;;;;;;5010260;28;20784;-74
2023/01/26 12:52:39;;;;;;;14.50;8.40;;;2.90;1.00;;;;;;5011085;28;20480;-74
2023/01/26 12:55:22;;;;;;;11.40;7.43;;;2.90;1.00;;;;;;5010656;28;20971;-75
2023/01/26 12:57:53;;;;;;;11.30;7.97;;;2.90;1.00;;;;;;5009967;28;20469;-75
2023/01/26 13:00:23;;;;;;;13.27;8.07;;;3.00;1.00;;;;;;5012123;28;20958;-75
2023/01/26 13:02:54;;;;;;;13.47;7.33;;;3.00;1.00;;;;;;5010433;28;20524;-74
2023/01/26 13:05:24;;;;;;;8.90;6.23;;;3.00;1.00;;;;;;5010874;28;20492;-74
2023/01/26 13:07:49;;;;;;;13.90;6.73;;;3.10;1.00;;;;;;5001885;28;20820;-74
2023/01/26 13:10:18;;;;;;;8.63;5.90;;;3.00;1.00;;;;;;5004427;28;20441;-74
2023/01/26 13:12:54;;;;;;;11.90;7.00;;;3.10;1.00;;;;;;5009929;28;20215;-74
2023/01/26 13:15:22;;;;;;;10.40;7.10;;;3.10;1.00;;;;;;5011006;28;20425;-74
2023/01/26 13:17:49;;;;;;;11.00;7.70;;;3.00;1.00;;;;;;5006594;28;20527;-74
2023/01/26 13:20:44;;;;;;;12.07;7.57;;;3.00;1.00;;;;;;5007384;28;20465;-74
2023/01/26 13:23:38;;;;;;;13.13;7.60;;;3.00;1.00;;;;;;5003212;28;20446;-74
2023/01/26 13:26:15;;;;;;;11.60;7.67;;;3.00;1.00;;;;;;5004893;28;20463;-74
2023/01/26 13:28:41;;;;;;;10.47;7.17;;;3.00;1.00;;;;;;5007260;28;20636;-73
2023/01/26 13:31:08;;;;;;;14.00;7.27;;;2.90;1.00;;;;;;5011345;28;20465;-74
2023/01/26 13:33:34;;;;;;;10.73;6.90;;;3.10;1.00;;;;;;5008748;28;20443;-74
2023/01/26 13:36:04;;;;;;;11.50;7.87;;;3.20;1.00;;;;;;5006048;28;20433;-74
2023/01/26 13:38:39;;;;;;;14.03;7.77;;;2.90;1.00;;;;;;5007366;28;20305;-74
2023/01/26 13:41:19;;;;;;;10.53;7.80;;;2.90;1.00;;;;;;5007589;28;20448;-74
2023/01/26 13:44:04;;;;;;;12.33;7.70;;;2.90;1.00;;;;;;5008464;28;21025;-74
2023/01/26 13:46:39;;;;;;;12.10;7.87;;;2.80;1.00;;;;;;5007921;28;20441;-75
2023/01/26 13:49:05;;;;;;;13.53;7.87;;;2.90;1.00;;;;;;5004234;28;20519;-74